createdAt,value
2023-04-20T00:04:05.074Z,14.00
2023-04-20T00:09:07.198Z,12.98
2023-04-20T00:14:09.291Z,13.73
2023-04-20T00:19:12.002Z,14.55
2023-04-20T00:24:14.101Z,12.25
2023-04-20T00:29:16.523Z,11.73
2023-04-20T00:34:18.875Z,11.50
2023-04-20T00:39:21.463Z,12.82
2023-04-20T00:44:23.557Z,12.25
2023-04-20T00:49:30.986Z,11.57
2023-04-20T00:54:33.231Z,11.20
2023-04-20T00:59:35.408Z,12.60
2023-04-20T01:04:37.778Z,11.82
2023-04-20T01:09:39.994Z,9.68
2023-04-20T01:14:42.108Z,10.10
2023-04-20T01:19:45.031Z,7.75
2023-04-20T01:24:48.377Z,8.95
2023-04-20T01:29:50.484Z,9.35
2023-04-20T01:34:52.532Z,9.98
2023-04-20T01:39:55.174Z,9.80
2023-04-20T01:44:57.343Z,9.20
2023-04-20T01:49:59.383Z,7.93
2023-04-20T01:55:01.428Z,7.30
2023-04-20T02:00:04.708Z,8.27
2023-04-20T02:05:16.222Z,6.85
2023-04-20T02:10:18.614Z,8.43
2023-04-20T02:15:20.772Z,6.72
2023-04-20T02:20:22.920Z,7.68
2023-04-20T02:25:25.003Z,6.28
2023-04-20T02:30:27.215Z,6.05
2023-04-20T02:35:29.280Z,8.20
2023-04-20T02:40:31.543Z,7.20
2023-04-20T02:45:33.672Z,7.32
2023-04-20T02:50:36.349Z,6.75
2023-04-20T02:55:46.706Z,6.10
2023-04-20T03:01:07.208Z,6.53
2023-04-20T03:06:12.054Z,7.50
2023-04-20T03:11:16.781Z,5.40
2023-04-20T03:16:19.589Z,6.57
2023-04-20T03:21:25.572Z,7.28
2023-04-20T03:26:28.038Z,6.07
2023-04-20T03:31:45.960Z,7.20
2023-04-20T03:36:48.386Z,6.55
2023-04-20T03:41:50.647Z,7.78
2023-04-20T03:46:52.714Z,5.75
2023-04-20T03:51:54.842Z,6.68
2023-04-20T03:56:58.553Z,5.60
2023-04-20T04:02:02.846Z,7.35
2023-04-20T04:07:05.375Z,6.53
2023-04-20T04:12:07.749Z,5.50
2023-04-20T04:17:09.987Z,5.43
2023-04-20T04:22:16.239Z,8.52
2023-04-20T04:27:37.709Z,6.95
2023-04-20T04:32:40.053Z,6.45
2023-04-20T04:37:43.137Z,8.75
2023-04-20T04:42:45.967Z,7.63
2023-04-20T04:47:48.311Z,7.72
2023-04-20T04:52:50.591Z,7.47
2023-04-20T04:57:52.676Z,7.25
2023-04-20T05:02:55.400Z,7.20
2023-04-20T05:07:57.529Z,8.15
2023-04-20T05:13:00.457Z,6.60
2023-04-20T05:18:02.920Z,7.35
2023-04-20T05:23:05.112Z,8.77
2023-04-20T05:28:07.251Z,8.45
2023-04-20T05:33:09.394Z,7.75
2023-04-20T05:38:11.568Z,6.45
2023-04-20T05:43:13.694Z,7.03
2023-04-20T05:48:15.758Z,6.97
2023-04-20T05:53:17.835Z,7.22
2023-04-20T05:58:19.942Z,6.38
2023-04-20T06:03:22.279Z,6.57
2023-04-20T06:08:24.655Z,6.35
2023-04-20T06:13:26.777Z,6.63
2023-04-20T06:18:29.346Z,6.53
2023-04-20T06:23:31.492Z,5.90
2023-04-20T06:28:33.566Z,5.95
2023-04-20T06:33:35.713Z,5.82
2023-04-20T06:38:37.944Z,5.93
2023-04-20T06:43:42.104Z,5.32
2023-04-20T06:48:44.189Z,5.90
2023-04-20T06:53:46.285Z,7.30
2023-04-20T06:58:48.806Z,6.63
2023-04-20T07:03:52.384Z,8.38
2023-04-20T07:08:54.656Z,5.88
2023-04-20T07:13:57.146Z,7.50
2023-04-20T07:18:59.159Z,5.93
2023-04-20T07:24:01.203Z,7.05
2023-04-20T07:29:03.432Z,8.48
2023-04-20T07:34:05.769Z,6.25
2023-04-20T07:39:08.093Z,7.53
2023-04-20T07:44:11.186Z,7.57
2023-04-20T07:49:13.276Z,7.40
2023-04-20T07:54:15.857Z,5.80
2023-04-20T07:59:18.313Z,6.68
2023-04-20T08:04:20.696Z,6.07
2023-04-20T08:09:22.952Z,6.05
2023-04-20T08:14:25.039Z,7.20
2023-04-20T08:19:27.133Z,6.57
2023-04-20T08:24:29.434Z,6.25
2023-04-20T08:29:31.518Z,4.95
2023-04-20T08:34:33.959Z,5.45
2023-04-20T08:39:36.629Z,4.78
2023-04-20T08:44:38.761Z,5.80
2023-04-20T08:49:44.232Z,5.20
2023-04-20T08:54:55.925Z,5.13
2023-04-20T08:59:59.168Z,4.85
2023-04-20T09:05:03.015Z,4.80
2023-04-20T09:10:05.971Z,4.03
2023-04-20T09:15:08.671Z,4.25
2023-04-20T09:20:11.876Z,4.38
2023-04-20T09:25:18.050Z,4.03
2023-04-20T09:30:20.238Z,4.40
2023-04-20T09:35:24.042Z,5.03
2023-04-20T09:40:27.512Z,5.10
2023-04-20T09:45:29.944Z,3.55
2023-04-20T09:50:42.095Z,3.97
2023-04-20T09:55:52.174Z,4.57
2023-04-20T10:00:54.478Z,5.55
2023-04-20T10:05:56.632Z,4.53
2023-04-20T10:10:58.710Z,5.95
2023-04-20T10:16:00.825Z,5.38
2023-04-20T10:21:09.660Z,4.45
2023-04-20T10:26:11.971Z,5.38
2023-04-20T10:31:15.767Z,5.35
2023-04-20T10:36:47.254Z,5.00
2023-04-20T10:41:54.438Z,6.13
2023-04-20T10:46:57.173Z,6.07
2023-04-20T10:51:59.673Z,5.68
2023-04-20T10:57:03.160Z,5.70
2023-04-20T11:02:10.865Z,4.85
2023-04-20T11:07:16.859Z,6.25
2023-04-20T11:17:31.553Z,6.35
2023-04-20T11:22:33.948Z,4.80
2023-04-20T11:27:37.186Z,5.18
2023-04-20T11:32:39.504Z,6.20
2023-04-20T11:37:51.495Z,5.35
2023-04-20T11:42:53.827Z,4.82
2023-04-20T11:47:55.939Z,5.40
2023-04-20T11:52:57.981Z,5.32
2023-04-20T11:58:00.161Z,5.32
2023-04-20T12:03:02.473Z,6.78
2023-04-20T12:08:04.908Z,5.43
2023-04-20T12:13:07.040Z,4.97
2023-04-20T12:18:09.158Z,4.55
2023-04-20T12:23:11.379Z,4.63
2023-04-20T12:28:13.649Z,4.82
2023-04-20T12:33:16.084Z,5.47
2023-04-20T12:38:18.214Z,4.65
2023-04-20T12:43:20.756Z,4.70
2023-04-20T12:48:22.922Z,4.18
2023-04-20T12:53:25.168Z,4.72
2023-04-20T12:58:27.219Z,5.65
2023-04-20T13:03:29.613Z,4.75
2023-04-20T13:08:31.835Z,5.15
2023-04-20T13:13:33.952Z,4.53
2023-04-20T13:18:36.278Z,5.43
2023-04-20T13:23:39.960Z,5.50
2023-04-20T13:28:42.099Z,5.22
2023-04-20T13:33:44.207Z,4.63
2023-04-20T13:38:47.286Z,5.97
2023-04-20T13:43:50.374Z,4.53
2023-04-20T13:48:52.430Z,4.78
2023-04-20T13:53:54.524Z,4.95
2023-04-20T13:58:56.628Z,4.90
2023-04-20T14:03:59.148Z,6.38
2023-04-20T14:09:01.633Z,4.90
2023-04-20T14:14:03.771Z,4.32
2023-04-20T14:19:05.815Z,5.07
2023-04-20T14:24:08.097Z,4.97
2023-04-20T14:29:10.286Z,4.80
2023-04-20T14:34:13.269Z,5.03
2023-04-20T14:39:15.716Z,4.38
2023-04-20T14:44:18.031Z,4.35
2023-04-20T14:49:20.281Z,5.18
2023-04-20T14:54:22.364Z,4.78
2023-04-20T14:59:26.383Z,4.00
2023-04-20T15:04:28.673Z,5.35
2023-04-20T15:09:30.947Z,4.50
2023-04-20T15:14:33.062Z,4.88
2023-04-20T15:19:35.108Z,4.85
2023-04-20T15:24:37.157Z,4.60
2023-04-20T15:29:39.174Z,5.05
2023-04-20T15:34:41.347Z,4.13
2023-04-20T15:39:44.928Z,4.22
2023-04-20T15:44:47.018Z,4.35
2023-04-20T15:49:49.102Z,4.10
2023-04-20T15:54:51.137Z,4.07
2023-04-20T15:59:53.235Z,3.47
2023-04-20T16:04:55.423Z,3.55
2023-04-20T16:10:16.040Z,3.53
2023-04-20T16:15:18.360Z,3.90
2023-04-20T16:20:20.753Z,3.50
2023-04-20T16:25:23.303Z,3.33
2023-04-20T16:30:25.525Z,3.42
2023-04-20T16:35:27.589Z,3.65
2023-04-20T16:40:29.627Z,3.63
2023-04-20T16:45:33.285Z,4.07
2023-04-20T16:50:37.777Z,4.10
2023-04-20T16:55:41.064Z,4.05
2023-04-20T17:00:43.177Z,4.60
2023-04-20T17:05:46.567Z,3.90
2023-04-20T17:10:48.681Z,4.65
2023-04-20T17:15:50.696Z,4.22
2023-04-20T17:20:52.872Z,4.50
2023-04-20T17:25:55.113Z,4.10
2023-04-20T17:30:57.163Z,3.75
2023-04-20T17:36:00.389Z,2.88
2023-04-20T17:41:03.567Z,3.08
2023-04-20T17:46:05.689Z,2.80
2023-04-20T17:51:07.876Z,3.40
2023-04-20T17:56:10.975Z,2.67
2023-04-20T18:01:13.102Z,2.75
2023-04-20T18:06:15.260Z,2.80
2023-04-20T18:11:17.343Z,2.72
2023-04-20T18:16:19.610Z,3.10
2023-04-20T18:21:21.743Z,2.72
2023-04-20T18:26:24.773Z,2.47
2023-04-20T18:31:27.799Z,2.83
2023-04-20T18:36:30.248Z,3.33
2023-04-20T18:41:32.333Z,2.95
2023-04-20T18:46:34.412Z,2.50
2023-04-20T18:51:37.260Z,2.20
2023-04-20T18:56:39.720Z,2.72
2023-04-20T19:01:41.851Z,2.63
2023-04-20T19:06:43.979Z,2.40
2023-04-20T19:11:46.021Z,2.25
2023-04-20T19:16:48.180Z,2.45
2023-04-20T19:21:50.626Z,2.20
2023-04-20T19:26:52.906Z,2.60
2023-04-20T19:31:55.167Z,2.60
2023-04-20T19:36:57.290Z,2.45
2023-04-20T19:41:59.320Z,2.95
2023-04-20T19:47:01.368Z,2.47
2023-04-20T19:52:03.744Z,1.85
2023-04-20T19:57:05.849Z,1.98
2023-04-20T20:02:08.039Z,1.63
2023-04-20T20:07:10.612Z,2.22
2023-04-20T20:12:12.940Z,1.80
2023-04-20T20:17:15.048Z,1.90
2023-04-20T20:22:17.134Z,1.70
2023-04-20T20:27:19.264Z,2.10
2023-04-20T20:32:22.188Z,2.10
2023-04-20T20:37:24.466Z,1.85
2023-04-20T20:42:30.392Z,2.63
2023-04-20T20:52:35.307Z,2.65
2023-04-20T20:57:37.773Z,2.65
2023-04-20T21:02:40.093Z,2.58
2023-04-20T21:07:42.409Z,2.05
2023-04-20T21:12:44.505Z,2.33
2023-04-20T21:17:46.607Z,2.17
2023-04-20T21:22:48.735Z,2.30
2023-04-20T21:27:50.823Z,2.28
2023-04-20T21:32:52.913Z,1.90
2023-04-20T21:37:55.026Z,2.30
2023-04-20T21:42:57.107Z,2.83
2023-04-20T21:47:59.181Z,1.90
2023-04-20T21:53:01.232Z,2.08
2023-04-20T21:58:03.521Z,1.90
2023-04-20T22:03:06.039Z,1.80
2023-04-20T22:08:08.178Z,2.20
2023-04-20T22:13:10.376Z,2.50
2023-04-20T22:18:12.956Z,2.10
2023-04-20T22:23:15.345Z,2.20
2023-04-20T22:28:17.591Z,2.03
2023-04-20T22:33:19.665Z,2.20
2023-04-20T22:38:21.717Z,1.85
2023-04-20T22:43:24.347Z,2.50
2023-04-20T22:48:26.441Z,2.17
2023-04-20T22:53:30.156Z,1.50
2023-04-20T22:58:32.481Z,1.58
2023-04-20T23:03:34.705Z,1.60
2023-04-20T23:08:37.645Z,1.80
2023-04-20T23:13:41.319Z,1.83
2023-04-20T23:18:43.376Z,1.83
2023-04-20T23:23:45.665Z,2.38
2023-04-20T23:28:47.721Z,2.08
2023-04-20T23:33:50.086Z,2.17
2023-04-20T23:38:52.150Z,2.20
2023-04-20T23:43:54.174Z,2.20
2023-04-20T23:48:56.391Z,2.03
2023-04-20T23:53:58.429Z,2.40
2023-04-20T23:59:00.481Z,2.60
